createdAt,value
2022-11-20T00:01:37.883Z,100566.06
2022-11-20T00:04:06.034Z,100561.64
2022-11-20T00:06:34.533Z,100560.56
2022-11-20T00:09:02.895Z,100560.85
2022-11-20T00:11:32.413Z,100561.38
2022-11-20T00:14:03.180Z,100564.94
2022-11-20T00:16:33.628Z,100564.59
2022-11-20T00:19:02.630Z,100563.98
2022-11-20T00:21:31.562Z,100564.94
2022-11-20T00:24:00.501Z,100568.90
2022-11-20T00:26:30.393Z,100565.77
2022-11-20T00:29:01.310Z,100562.87
2022-11-20T00:31:30.672Z,100568.63
2022-11-20T00:33:58.790Z,100573.90
2022-11-20T00:36:29.415Z,100569.98
2022-11-20T00:38:59.619Z,100576.94
2022-11-20T00:41:30.140Z,100574.00
2022-11-20T00:43:59.134Z,100579.41
2022-11-20T00:46:29.027Z,100578.27
2022-11-20T00:48:58.387Z,100578.77
2022-11-20T00:51:28.929Z,100577.70
2022-11-20T00:53:58.697Z,100579.36
2022-11-20T00:56:27.319Z,100580.19
2022-11-20T00:58:55.527Z,100579.56
2022-11-20T01:01:27.262Z,100579.30
2022-11-20T01:03:58.007Z,100579.69
2022-11-20T01:06:33.689Z,100575.49
2022-11-20T01:09:06.282Z,100578.27
2022-11-20T01:11:37.926Z,100577.27
2022-11-20T01:14:09.347Z,100579.13
2022-11-20T01:16:46.954Z,100578.06
2022-11-20T01:19:22.538Z,100579.05
2022-11-20T01:21:53.949Z,100573.67
2022-11-20T01:24:23.077Z,100574.21
2022-11-20T01:26:54.829Z,100579.38
2022-11-20T01:29:25.238Z,100574.08
2022-11-20T01:31:54.202Z,100579.80
2022-11-20T01:34:23.649Z,100577.08
2022-11-20T01:36:54.251Z,100579.79
2022-11-20T01:39:25.374Z,100579.23
2022-11-20T01:42:14.321Z,100575.36
2022-11-20T01:44:52.909Z,100577.84
2022-11-20T01:47:38.338Z,100583.98
2022-11-20T01:50:06.652Z,100583.95
2022-11-20T01:52:44.177Z,100582.19
2022-11-20T01:55:20.418Z,100576.60
2022-11-20T01:57:49.902Z,100579.16
2022-11-20T02:00:20.168Z,100576.98
2022-11-20T02:02:58.517Z,100580.89
2022-11-20T02:05:37.984Z,100579.89
2022-11-20T02:08:07.931Z,100576.06
2022-11-20T02:10:36.479Z,100571.78
2022-11-20T02:13:23.967Z,100575.38
2022-11-20T02:15:52.746Z,100576.63
2022-11-20T02:18:22.377Z,100575.48
2022-11-20T02:20:58.177Z,100578.33
2022-11-20T02:23:32.036Z,100567.81
2022-11-20T02:26:04.616Z,100569.46
2022-11-20T02:28:33.304Z,100567.48
2022-11-20T02:31:02.444Z,100570.23
2022-11-20T02:33:31.062Z,100566.89
2022-11-20T02:35:59.217Z,100566.80
2022-11-20T02:38:27.553Z,100567.27
2022-11-20T02:40:56.090Z,100561.27
2022-11-20T02:43:24.457Z,100564.34
2022-11-20T02:45:52.462Z,100560.69
2022-11-20T02:48:20.655Z,100553.04
2022-11-20T02:50:48.592Z,100548.23
2022-11-20T02:53:17.069Z,100543.22
2022-11-20T02:55:45.145Z,100544.60
2022-11-20T02:58:13.122Z,100541.52
2022-11-20T03:00:41.591Z,100539.97
2022-11-20T03:03:09.614Z,100535.37
2022-11-20T03:05:38.055Z,100537.05
2022-11-20T03:08:06.369Z,100535.22
2022-11-20T03:10:34.600Z,100537.33
2022-11-20T03:13:02.639Z,100536.44
2022-11-20T03:15:32.153Z,100536.63
2022-11-20T03:18:00.260Z,100538.44
2022-11-20T03:20:28.360Z,100545.05
2022-11-20T03:22:56.630Z,100549.72
2022-11-20T03:25:24.774Z,100545.55
2022-11-20T03:27:53.216Z,100549.75
2022-11-20T03:30:23.210Z,100545.68
2022-11-20T03:32:54.959Z,100544.63
2022-11-20T03:35:23.075Z,100544.34
2022-11-20T03:37:51.244Z,100545.29
2022-11-20T03:40:19.569Z,100547.27
2022-11-20T03:42:47.637Z,100549.96
2022-11-20T03:45:19.349Z,100553.55
2022-11-20T03:47:47.783Z,100554.48
2022-11-20T03:50:16.210Z,100558.84
2022-11-20T03:52:44.595Z,100562.26
2022-11-20T03:55:12.594Z,100563.60
2022-11-20T03:57:40.601Z,100562.63
2022-11-20T04:00:09.318Z,100558.83
2022-11-20T04:02:37.355Z,100558.58
2022-11-20T04:05:05.631Z,100557.19
2022-11-20T04:07:34.978Z,100557.91
2022-11-20T04:10:03.522Z,100559.15
2022-11-20T04:12:33.465Z,100562.39
2022-11-20T04:15:01.826Z,100558.09
2022-11-20T04:17:32.205Z,100558.54
2022-11-20T04:20:00.272Z,100554.45
2022-11-20T04:22:28.367Z,100554.95
2022-11-20T04:24:56.848Z,100558.27
2022-11-20T04:27:24.840Z,100558.22
2022-11-20T04:29:52.946Z,100551.39
2022-11-20T04:32:21.058Z,100547.31
2022-11-20T04:34:49.108Z,100544.58
2022-11-20T04:37:17.161Z,100542.84
2022-11-20T04:39:45.181Z,100542.63
2022-11-20T04:42:31.680Z,100543.98
2022-11-20T04:44:59.671Z,100538.55
2022-11-20T04:47:27.846Z,100536.11
2022-11-20T04:49:55.934Z,100536.36
2022-11-20T04:52:24.147Z,100538.38
2022-11-20T04:54:53.979Z,100537.59
2022-11-20T04:57:22.122Z,100538.94
2022-11-20T04:59:50.297Z,100539.75
2022-11-20T05:02:18.883Z,100538.76
2022-11-20T05:04:46.915Z,100538.30
2022-11-20T05:07:15.263Z,100536.77
2022-11-20T05:09:43.309Z,100536.22
2022-11-20T05:12:12.020Z,100536.38
2022-11-20T05:14:40.216Z,100532.63
2022-11-20T05:17:11.530Z,100531.49
2022-11-20T05:19:39.546Z,100533.73
2022-11-20T05:22:07.641Z,100533.48
2022-11-20T05:24:35.891Z,100535.29
2022-11-20T05:27:04.075Z,100530.41
2022-11-20T05:29:32.775Z,100526.41
2022-11-20T05:32:00.864Z,100531.02
2022-11-20T05:34:29.077Z,100527.45
2022-11-20T05:36:57.189Z,100523.23
2022-11-20T05:39:30.163Z,100527.69
2022-11-20T05:42:18.131Z,100531.08
2022-11-20T05:44:46.331Z,100529.48
2022-11-20T05:47:16.645Z,100532.07
2022-11-20T05:49:47.631Z,100533.92
2022-11-20T05:52:16.100Z,100528.99
2022-11-20T05:54:45.607Z,100529.05
2022-11-20T05:57:14.233Z,100531.64
2022-11-20T05:59:43.073Z,100531.21
2022-11-20T06:02:14.896Z,100529.95
2022-11-20T06:04:46.712Z,100531.70
2022-11-20T06:07:15.204Z,100533.84
2022-11-20T06:09:43.843Z,100537.73
2022-11-20T06:12:12.819Z,100535.25
2022-11-20T06:14:43.062Z,100538.15
2022-11-20T06:17:12.871Z,100539.08
2022-11-20T06:19:41.089Z,100537.27
2022-11-20T06:22:09.302Z,100539.56
2022-11-20T06:24:37.833Z,100543.69
2022-11-20T06:27:05.895Z,100544.56
2022-11-20T06:29:35.637Z,100541.66
2022-11-20T06:32:05.034Z,100544.58
2022-11-20T06:34:33.463Z,100541.06
2022-11-20T06:37:01.658Z,100545.21
2022-11-20T06:39:30.575Z,100540.45
2022-11-20T06:41:59.378Z,100538.24
2022-11-20T06:44:27.866Z,100536.80
2022-11-20T06:46:55.890Z,100532.63
2022-11-20T06:49:24.429Z,100532.82
2022-11-20T06:51:53.098Z,100532.35
2022-11-20T06:54:21.249Z,100526.98
2022-11-20T06:56:50.057Z,100532.70
2022-11-20T06:59:17.969Z,100531.43
2022-11-20T07:01:46.492Z,100528.73
2022-11-20T07:04:16.474Z,100526.45
2022-11-20T07:06:45.609Z,100526.83
2022-11-20T07:09:14.429Z,100525.23
2022-11-20T07:11:42.991Z,100523.86
2022-11-20T07:14:11.560Z,100518.59
2022-11-20T07:16:39.842Z,100517.58
2022-11-20T07:19:08.996Z,100518.32
2022-11-20T07:21:37.309Z,100519.71
2022-11-20T07:24:05.875Z,100518.77
2022-11-20T07:26:34.712Z,100519.76
2022-11-20T07:29:03.814Z,100521.48
2022-11-20T07:31:32.967Z,100522.27
2022-11-20T07:34:01.368Z,100517.17
2022-11-20T07:36:30.902Z,100517.90
2022-11-20T07:38:59.258Z,100516.40
2022-11-20T07:42:00.099Z,100512.27
2022-11-20T07:44:34.890Z,100511.87
2022-11-20T07:47:07.639Z,100515.45
2022-11-20T07:49:35.810Z,100512.48
2022-11-20T07:52:05.270Z,100507.69
2022-11-20T07:54:34.831Z,100503.63
2022-11-20T07:57:03.917Z,100505.15
2022-11-20T07:59:32.815Z,100501.76
2022-11-20T08:02:01.803Z,100504.38
2022-11-20T08:04:34.424Z,100501.70
2022-11-20T08:07:02.604Z,100498.56
2022-11-20T08:09:30.746Z,100498.01
2022-11-20T08:12:31.775Z,100495.73
2022-11-20T08:15:07.200Z,100494.09
2022-11-20T08:17:38.947Z,100492.48
2022-11-20T08:20:07.581Z,100489.39
2022-11-20T08:22:36.074Z,100488.33
2022-11-20T08:25:07.511Z,100485.41
2022-11-20T08:27:37.782Z,100483.44
2022-11-20T08:30:10.043Z,100475.38
2022-11-20T08:32:39.070Z,100472.52
2022-11-20T08:35:08.599Z,100472.41
2022-11-20T08:37:40.144Z,100469.08
2022-11-20T08:40:16.943Z,100468.45
2022-11-20T08:42:51.821Z,100464.27
2022-11-20T08:45:20.702Z,100463.51
2022-11-20T08:47:49.157Z,100466.36
2022-11-20T08:50:18.260Z,100469.42
2022-11-20T08:52:46.760Z,100470.28
2022-11-20T08:55:16.074Z,100464.23
2022-11-20T08:57:49.535Z,100463.90
2022-11-20T09:00:19.567Z,100463.41
2022-11-20T09:02:48.193Z,100462.29
2022-11-20T09:05:20.162Z,100464.49
2022-11-20T09:07:48.931Z,100458.14
2022-11-20T09:10:23.951Z,100452.93
2022-11-20T09:12:55.096Z,100456.80
2022-11-20T09:15:25.759Z,100453.09
2022-11-20T09:18:01.010Z,100451.80
2022-11-20T09:20:31.355Z,100446.10
2022-11-20T09:22:59.787Z,100446.89
2022-11-20T09:25:29.008Z,100445.98
2022-11-20T09:28:00.377Z,100447.06
2022-11-20T09:30:29.599Z,100446.16
2022-11-20T09:32:57.899Z,100445.55
2022-11-20T09:35:26.724Z,100441.17
2022-11-20T09:37:59.544Z,100444.79
2022-11-20T09:40:30.635Z,100450.14
2022-11-20T09:43:02.868Z,100446.38
2022-11-20T09:46:02.333Z,100448.52
2022-11-20T09:48:55.166Z,100445.17
2022-11-20T09:51:48.808Z,100440.11
2022-11-20T09:54:23.540Z,100441.48
2022-11-20T09:57:01.421Z,100436.42
2022-11-20T09:59:44.028Z,100441.66
2022-11-20T10:02:25.535Z,100440.86
2022-11-20T10:04:57.511Z,100437.19
2022-11-20T10:07:56.713Z,100438.98
2022-11-20T10:10:54.994Z,100436.04
2022-11-20T10:13:36.525Z,100437.13
2022-11-20T10:16:41.271Z,100427.49
2022-11-20T10:19:34.244Z,100419.16
2022-11-20T10:22:17.128Z,100419.78
2022-11-20T10:25:02.551Z,100417.85
2022-11-20T10:28:08.250Z,100422.53
2022-11-20T10:30:42.255Z,100420.59
2022-11-20T10:33:18.816Z,100417.36
2022-11-20T10:36:00.640Z,100421.00
2022-11-20T10:38:50.960Z,100423.54
2022-11-20T10:41:35.935Z,100418.76
2022-11-20T10:44:15.892Z,100413.13
2022-11-20T10:46:48.471Z,100409.45
2022-11-20T10:49:20.421Z,100412.71
2022-11-20T10:52:10.627Z,100409.91
2022-11-20T10:54:39.216Z,100406.73
2022-11-20T10:57:36.746Z,100406.36
2022-11-20T11:00:10.453Z,100400.80
2022-11-20T11:02:49.116Z,100398.98
2022-11-20T11:05:21.253Z,100397.56
2022-11-20T11:07:54.684Z,100401.52
2022-11-20T11:10:51.866Z,100402.55
2022-11-20T11:13:29.487Z,100405.45
2022-11-20T11:15:59.755Z,100406.33
2022-11-20T11:18:31.396Z,100403.27
2022-11-20T11:21:03.699Z,100404.17
2022-11-20T11:23:44.050Z,100401.02
2022-11-20T11:26:27.096Z,100401.53
2022-11-20T11:29:04.568Z,100397.21
2022-11-20T11:31:36.284Z,100395.66
2022-11-20T11:34:12.852Z,100398.44
2022-11-20T11:36:42.602Z,100397.07
2022-11-20T11:39:17.587Z,100394.19
2022-11-20T11:41:46.921Z,100394.17
2022-11-20T11:44:38.994Z,100392.48
2022-11-20T11:47:21.002Z,100393.70
2022-11-20T11:49:49.825Z,100391.87
2022-11-20T11:52:22.500Z,100387.26
2022-11-20T11:54:56.454Z,100381.20
2022-11-20T11:57:38.219Z,100378.38
2022-11-20T12:00:18.333Z,100373.58
2022-11-20T12:02:46.518Z,100370.68
2022-11-20T12:05:19.036Z,100368.80
2022-11-20T12:07:59.917Z,100365.52
2022-11-20T12:10:28.464Z,100361.02
2022-11-20T12:13:05.276Z,100359.46
2022-11-20T12:15:35.823Z,100355.45
2022-11-20T12:18:15.586Z,100350.77
2022-11-20T12:20:55.667Z,100350.07
2022-11-20T12:23:47.594Z,100349.65
2022-11-20T12:26:42.246Z,100345.80
2022-11-20T12:29:14.968Z,100338.20
2022-11-20T12:31:51.583Z,100334.67
2022-11-20T12:34:46.483Z,100333.56
2022-11-20T12:37:49.455Z,100332.24
2022-11-20T12:40:39.253Z,100327.16
2022-11-20T12:43:43.950Z,100324.31
2022-11-20T12:46:50.522Z,100318.42
2022-11-20T12:49:44.017Z,100317.69
2022-11-20T12:52:44.799Z,100320.38
2022-11-20T12:55:33.855Z,100319.56
2022-11-20T12:58:03.465Z,100314.13
2022-11-20T13:00:36.236Z,100310.01
2022-11-20T13:03:38.965Z,100311.45
2022-11-20T13:06:17.144Z,100312.80
2022-11-20T13:08:57.159Z,100310.81
2022-11-20T13:11:48.760Z,100305.44
2022-11-20T13:14:23.679Z,100304.00
2022-11-20T13:17:05.932Z,100302.20
2022-11-20T13:19:42.738Z,100298.88
2022-11-20T13:22:44.232Z,100292.34
2022-11-20T13:25:31.693Z,100288.63
2022-11-20T13:28:07.503Z,100287.65
2022-11-20T13:30:38.399Z,100281.38
2022-11-20T13:33:28.604Z,100281.35
2022-11-20T13:36:04.520Z,100283.93
2022-11-20T13:38:49.765Z,100281.64
2022-11-20T13:41:39.354Z,100280.23
2022-11-20T13:44:37.335Z,100277.34
2022-11-20T13:47:22.168Z,100273.93
2022-11-20T13:49:53.055Z,100275.05
2022-11-20T13:52:31.360Z,100274.08
2022-11-20T13:55:29.640Z,100271.90
2022-11-20T13:58:17.778Z,100272.75
2022-11-20T14:00:53.086Z,100271.00
2022-11-20T14:04:04.100Z,100274.58
2022-11-20T14:06:44.770Z,100272.59
2022-11-20T14:09:34.078Z,100270.08
2022-11-20T14:12:15.634Z,100267.91
2022-11-20T14:14:55.582Z,100267.35
2022-11-20T14:17:30.110Z,100262.52
2022-11-20T14:20:03.884Z,100263.61
2022-11-20T14:22:33.144Z,100263.25
2022-11-20T14:25:15.491Z,100258.75
2022-11-20T14:27:52.097Z,100253.06
2022-11-20T14:30:50.004Z,100254.28
2022-11-20T14:33:20.501Z,100249.21
2022-11-20T14:35:51.351Z,100244.95
2022-11-20T14:38:32.737Z,100246.41
2022-11-20T14:41:09.405Z,100251.44
2022-11-20T14:43:39.838Z,100258.86
2022-11-20T14:46:11.538Z,100258.48
2022-11-20T14:48:51.676Z,100251.13
2022-11-20T14:51:31.010Z,100252.52
2022-11-20T14:54:21.240Z,100252.27
2022-11-20T14:57:03.110Z,100250.37
2022-11-20T14:59:34.657Z,100250.36
2022-11-20T15:02:16.560Z,100246.67
2022-11-20T15:05:04.449Z,100245.00
2022-11-20T15:07:36.432Z,100242.67
2022-11-20T15:10:09.910Z,100240.11
2022-11-20T15:12:47.372Z,100241.25
2022-11-20T15:15:21.883Z,100244.63
2022-11-20T15:17:52.180Z,100239.94
2022-11-20T15:20:25.608Z,100239.27
2022-11-20T15:22:55.940Z,100240.24
2022-11-20T15:25:26.501Z,100237.90
2022-11-20T15:27:58.492Z,100232.52
2022-11-20T15:30:27.178Z,100229.15
2022-11-20T15:32:55.640Z,100232.14
2022-11-20T15:35:24.272Z,100230.40
2022-11-20T15:38:11.005Z,100228.05
2022-11-20T15:40:39.362Z,100226.69
2022-11-20T15:43:13.318Z,100233.20
2022-11-20T15:45:52.911Z,100233.02
2022-11-20T15:48:23.240Z,100230.52
2022-11-20T15:51:10.987Z,100227.07
2022-11-20T15:53:41.218Z,100224.92
2022-11-20T15:56:14.032Z,100221.64
2022-11-20T15:58:42.706Z,100222.25
2022-11-20T16:01:17.217Z,100220.84
2022-11-20T16:03:48.131Z,100226.72
2022-11-20T16:06:17.397Z,100224.27
2022-11-20T16:08:45.611Z,100226.98
2022-11-20T16:11:16.279Z,100223.29
2022-11-20T16:14:02.936Z,100224.08
2022-11-20T16:16:36.509Z,100220.15
2022-11-20T16:19:07.207Z,100219.27
2022-11-20T16:21:35.880Z,100219.19
2022-11-20T16:24:06.530Z,100225.07
2022-11-20T16:26:34.986Z,100222.98
2022-11-20T16:29:05.069Z,100221.98
2022-11-20T16:31:34.339Z,100218.73
2022-11-20T16:34:12.024Z,100218.56
2022-11-20T16:36:43.325Z,100216.73
2022-11-20T16:39:16.683Z,100216.73
2022-11-20T16:41:49.276Z,100217.44
2022-11-20T16:44:19.105Z,100214.39
2022-11-20T16:46:47.098Z,100212.16
2022-11-20T16:49:15.476Z,100212.00
2022-11-20T16:51:43.764Z,100211.45
2022-11-20T16:54:16.423Z,100213.80
2022-11-20T16:56:48.472Z,100209.44
2022-11-20T16:59:18.194Z,100211.04
2022-11-20T17:01:46.669Z,100212.43
2022-11-20T17:04:14.977Z,100209.35
2022-11-20T17:06:44.428Z,100212.20
2022-11-20T17:09:13.820Z,100211.50
2022-11-20T17:11:42.014Z,100203.58
2022-11-20T17:14:11.919Z,100199.54
2022-11-20T17:16:40.675Z,100198.02
2022-11-20T17:19:09.958Z,100198.17
2022-11-20T17:21:39.763Z,100192.60
2022-11-20T17:24:10.714Z,100191.39
2022-11-20T17:26:40.714Z,100196.90
2022-11-20T17:29:23.931Z,100195.13
2022-11-20T17:31:55.114Z,100193.02
2022-11-20T17:34:23.685Z,100185.94
2022-11-20T17:36:53.046Z,100186.59
2022-11-20T17:39:22.504Z,100184.67
2022-11-20T17:42:10.766Z,100188.90
2022-11-20T17:44:59.495Z,100190.50
2022-11-20T17:47:27.616Z,100185.23
2022-11-20T17:49:56.289Z,100188.66
2022-11-20T17:52:26.247Z,100193.31
2022-11-20T17:54:57.120Z,100190.08
2022-11-20T17:57:43.860Z,100193.64
2022-11-20T18:00:13.293Z,100190.16
2022-11-20T18:02:41.935Z,100184.21
2022-11-20T18:05:11.369Z,100178.38
2022-11-20T18:07:41.895Z,100174.88
2022-11-20T18:10:10.511Z,100181.18
2022-11-20T18:12:39.124Z,100187.34
2022-11-20T18:15:09.055Z,100184.85
2022-11-20T18:17:37.457Z,100182.46
2022-11-20T18:20:27.879Z,100182.02
2022-11-20T18:22:54.845Z,100178.21
2022-11-20T18:25:25.078Z,100176.96
2022-11-20T18:27:53.421Z,100175.63
2022-11-20T18:30:21.746Z,100172.01
2022-11-20T18:32:50.499Z,100177.14
2022-11-20T18:35:21.337Z,100174.33
2022-11-20T18:37:49.593Z,100173.71
2022-11-20T18:40:17.960Z,100179.49
2022-11-20T18:43:05.457Z,100183.69
2022-11-20T18:45:33.791Z,100181.59
2022-11-20T18:48:02.322Z,100182.30
2022-11-20T18:50:30.844Z,100186.55
2022-11-20T18:52:59.843Z,100189.48
2022-11-20T18:55:29.602Z,100190.10
2022-11-20T18:57:58.550Z,100193.22
2022-11-20T19:00:26.931Z,100195.24
2022-11-20T19:02:55.455Z,100197.86
2022-11-20T19:05:24.273Z,100196.10
2022-11-20T19:07:52.538Z,100192.84
2022-11-20T19:10:24.907Z,100196.20
2022-11-20T19:12:53.872Z,100197.97
2022-11-20T19:15:22.673Z,100198.46
2022-11-20T19:17:53.417Z,100195.85
2022-11-20T19:20:21.804Z,100191.75
2022-11-20T19:22:51.149Z,100193.50
2022-11-20T19:25:20.058Z,100192.56
2022-11-20T19:27:48.273Z,100190.66
2022-11-20T19:30:18.435Z,100191.09
2022-11-20T19:32:46.683Z,100182.98
2022-11-20T19:35:15.167Z,100179.48
2022-11-20T19:37:44.812Z,100177.33
2022-11-20T19:40:14.511Z,100179.89
2022-11-20T19:42:43.082Z,100180.33
2022-11-20T19:45:12.193Z,100182.06
2022-11-20T19:50:29.384Z,100184.79
2022-11-20T19:52:59.037Z,100187.54
2022-11-20T19:55:27.595Z,100185.90
2022-11-20T19:57:56.715Z,100184.90
2022-11-20T20:00:32.207Z,100183.77
2022-11-20T20:03:04.512Z,100177.10
2022-11-20T20:05:34.822Z,100176.34
2022-11-20T20:08:03.290Z,100178.73
2022-11-20T20:10:32.615Z,100181.55
2022-11-20T20:13:05.751Z,100178.95
2022-11-20T20:15:35.661Z,100178.07
2022-11-20T20:18:04.506Z,100177.16
2022-11-20T20:20:33.242Z,100174.55
2022-11-20T20:23:03.284Z,100174.26
2022-11-20T20:25:33.559Z,100176.58
2022-11-20T20:28:02.426Z,100173.13
2022-11-20T20:30:31.631Z,100173.06
2022-11-20T20:32:59.498Z,100176.80
2022-11-20T20:35:28.618Z,100176.75
2022-11-20T20:37:57.460Z,100181.35
2022-11-20T20:40:26.428Z,100182.68
2022-11-20T20:42:55.113Z,100180.29
2022-11-20T20:45:23.911Z,100181.17
2022-11-20T20:47:52.850Z,100187.27
2022-11-20T20:50:23.616Z,100185.50
2022-11-20T20:52:52.269Z,100187.57
2022-11-20T20:55:20.598Z,100191.42
2022-11-20T20:57:48.674Z,100194.54
2022-11-20T21:00:17.802Z,100197.17
2022-11-20T21:02:46.417Z,100196.16
2022-11-20T21:05:14.970Z,100197.13
2022-11-20T21:08:02.039Z,100195.31
2022-11-20T21:10:31.428Z,100194.02
2022-11-20T21:12:59.864Z,100192.63
2022-11-20T21:15:28.794Z,100194.60
2022-11-20T21:17:59.104Z,100193.84
2022-11-20T21:20:45.975Z,100192.89
2022-11-20T21:23:14.125Z,100192.05
2022-11-20T21:25:43.673Z,100187.77
2022-11-20T21:28:16.798Z,100187.20
2022-11-20T21:30:47.450Z,100186.52
2022-11-20T21:33:15.972Z,100188.40
2022-11-20T21:35:43.823Z,100185.69
2022-11-20T21:38:11.841Z,100189.73
2022-11-20T21:40:39.588Z,100188.20
2022-11-20T21:43:07.360Z,100190.52
2022-11-20T21:45:35.123Z,100190.04
2022-11-20T21:48:03.560Z,100185.25
2022-11-20T21:50:31.654Z,100185.20
2022-11-20T21:52:59.553Z,100183.23
2022-11-20T21:55:27.401Z,100184.05
2022-11-20T21:57:55.215Z,100188.29
2022-11-20T22:00:23.329Z,100186.84
2022-11-20T22:02:51.264Z,100187.13
2022-11-20T22:05:19.112Z,100184.13
2022-11-20T22:07:47.051Z,100186.86
2022-11-20T22:10:18.455Z,100184.23
2022-11-20T22:12:46.758Z,100185.69
2022-11-20T22:15:20.398Z,100184.46
2022-11-20T22:18:13.886Z,100179.56
2022-11-20T22:20:42.048Z,100176.14
2022-11-20T22:23:12.262Z,100172.46
2022-11-20T22:25:40.225Z,100166.30
2022-11-20T22:28:08.179Z,100165.11
2022-11-20T22:30:36.081Z,100169.48
2022-11-20T22:33:05.772Z,100167.83
2022-11-20T22:35:36.815Z,100169.50
2022-11-20T22:38:04.771Z,100167.80
2022-11-20T22:40:32.972Z,100175.44
2022-11-20T22:43:00.766Z,100172.48
2022-11-20T22:45:28.505Z,100168.55
2022-11-20T22:47:56.345Z,100164.09
2022-11-20T22:50:25.493Z,100160.23
2022-11-20T22:52:55.437Z,100161.29
2022-11-20T22:55:23.512Z,100155.27
2022-11-20T22:57:51.366Z,100152.63
2022-11-20T23:00:19.675Z,100152.98
2022-11-20T23:02:47.594Z,100151.54
2022-11-20T23:05:15.414Z,100151.79
2022-11-20T23:07:44.045Z,100149.57
2022-11-20T23:10:13.042Z,100146.55
2022-11-20T23:12:41.939Z,100146.89
2022-11-20T23:15:10.345Z,100144.98
2022-11-20T23:17:38.261Z,100142.98
2022-11-20T23:20:06.916Z,100141.41
2022-11-20T23:22:34.917Z,100137.73
2022-11-20T23:25:03.206Z,100127.68
2022-11-20T23:27:31.056Z,100127.41
2022-11-20T23:29:59.174Z,100120.75
2022-11-20T23:32:27.039Z,100118.67
2022-11-20T23:34:54.833Z,100115.63
2022-11-20T23:37:22.569Z,100110.45
2022-11-20T23:39:50.381Z,100106.09
2022-11-20T23:42:18.385Z,100100.45
2022-11-20T23:44:46.433Z,100100.92
2022-11-20T23:47:14.429Z,100097.11
2022-11-20T23:49:42.324Z,100092.44
2022-11-20T23:52:10.577Z,100096.46
2022-11-20T23:54:38.479Z,100095.19
2022-11-20T23:57:06.243Z,100099.67
2022-11-20T23:59:34.075Z,100097.39
